Laurent Verva

Laurent Verva

Statistiques 2026

  • Courses courues : 42
  • Nb de victoires : -
  • Nb de places : 1
  • Écart gagnant : 143
  • Réussite à la gagne : -
  • Réussite à la place : 2%
Musique : 0a 8a 4a 6a 6a 0a 5a 5a Da 2a 9a 6a 5a Da 6a 0a 7a 4a
DateRangCatégorieAlloc.Dist.HippodromeChevalRed. KmSpé.
29/04/19 6 Trot 14 000€ 2 700m Le Croise Laroche Golencia de Warnoc 1'18"2 Attelé
29/04/19 0 Trot 21 000€ 2 825m Le Croise Laroche Bilingue d'Alci Attelé
29/04/19 1 Trot 15 000€ 2 700m Le Croise Laroche Faucon de Fael 1'14"1 Attelé
28/04/19 3 Trot 14 000€ 2 550m Reims Farca Sly 1'17"3 Attelé
28/04/19 9 Trot 15 000€ 2 575m Reims Daisy de la Folie 1'16"6 Attelé
28/04/19 2 Trot 13 000€ 2 550m Reims Ebba Lotta 1'16"7 Attelé
28/04/19 6 Trot 13 000€ 2 550m Reims Expert Majyc 1'16"8 Attelé
27/04/19 6 Trot 17 000€ 2 900m Amiens Emile de Jal 1'18"2 Attelé
27/04/19 5 Trot 20 000€ 2 400m Amiens Au Temps Dubonheur 1'14"3 Attelé
27/04/19 8 Trot 17 000€ 2 400m Amiens Dario de la Besvre 1'16"0 Attelé
27/04/19 0 Trot 13 000€ 2 400m Amiens Falco d'Alci Attelé
22/04/19 D Mixte 16 000€ 2 800m Strasbourg Elisee du Pont Attelé
22/04/19 D Mixte 20 000€ 2 825m Strasbourg Bois du Bosnet Attelé
22/04/19 4 Mixte 13 000€ 2 800m Strasbourg Fysalia Attelé
14/04/19 0 Trot 16 000€ 2 625m Saint Omer Coquin du Driehoek Attelé
14/04/19 4 Trot 13 000€ 2 625m Saint Omer Falco d'Alci 1'18"9 Attelé
14/04/19 1 Trot 20 000€ 2 650m Saint Omer Amio Josselyn 1'16"8 Attelé
14/04/19 6 Trot 13 000€ 2 175m Saint Omer Gnaque 1'21"9 Attelé
13/04/19 5 Trot 18 000€ 2 700m Le Croise Laroche Flamme Mencourt 1'16"4 Attelé
13/04/19 D Trot 16 000€ 2 700m Le Croise Laroche Flashback Syga Attelé
13/04/19 4 Trot 18 000€ 2 825m Le Croise Laroche Dulcinee d'Arbaz 1'16"3 Attelé
13/04/19 1 Trot 24 000€ 2 700m Le Croise Laroche Bellagio Monoi 1'13"0 Attelé
08/04/19 7 Trot 15 000€ 2 700m Le Croise Laroche Ethano de Bouteau 1'16"4 Attelé
08/04/19 5 Trot 15 000€ 2 700m Le Croise Laroche Elisee du Pont 1'15"5 Attelé
07/04/19 0 Trot 17 000€ 2 700m La Capelle Daisy de la Folie Attelé
07/04/19 D Trot 24 000€ 2 750m La Capelle Divine de Navary Attelé
04/04/19 8 Trot 18 000€ 2 850m Mauquenchy Elliot d'Alci 1'17"9 Attelé
04/04/19 5 Trot 18 000€ 2 850m Mauquenchy Esther du Ganep 1'16"5 Attelé
01/04/19 9 Trot 14 000€ 2 825m Le Croise Laroche Flashback Syga 1'17"2 Attelé
01/04/19 7 Trot 15 000€ 2 825m Le Croise Laroche Ethano de Bouteau 1'16"8 Attelé
31/03/19 6 Trot 13 000€ 2 775m La Capelle Easy de Navary 1"16'8 Attelé
31/03/19 9 Trot 13 000€ 2 750m La Capelle Epona des Neuzy 1'18"7 Attelé
31/03/19 8 Trot 12 000€ 2 750m La Capelle Filae des Salines 1'19"0 Attelé
28/03/19 D Trot 16 000€ 2 600m Reims For Ever Mencourt Attelé lire

Jamais menaçante, a été sanctionnée pour finir.

28/03/19 6 Trot 22 000€ 2 600m Reims Bilingue d'Alci 1'15"5 Attelé lire

A figuré au sein du peloton, avant de terminer correctement.

28/03/19 9 Trot 20 000€ 2 600m Reims Eole Chatho 1'16"0 Attelé lire

N'a été qu'un simple figurant au sein du peloton.

25/03/19 D Trot 18 000€ 2 700m Le Croise Laroche Fayette Dream Attelé lire

A été sanctionnée dans la ligne opposée.

25/03/19 8 Trot 20 000€ 2 850m Le Croise Laroche Eclair de Babel 1'15"6 Attelé lire

Vite en queue de peloton, a terminé honorablement.

25/03/19 D Trot 20 000€ 2 825m Le Croise Laroche Etoile Dubonheur Attelé lire

A très vite pris le galop.

25/03/19 6 Trot 18 000€ 2 825m Le Croise Laroche Dauphine d'Alci 1'16"5 Attelé lire

Une des animatrices, a nettement faibli pour finir.

24/03/19 D Trot 13 000€ 2 400m Amiens Falco d'Alci Attelé
24/03/19 4 Trot 15 000€ 2 900m Amiens Espoir des Ventes 1'17"7 Attelé
19/03/19 7 Trot 31 000€ 2 150m Enghien Soisy Fire Bird 1'15"6 Attelé lire

Coanimateur, a été progressivement dominé dans la phase finale.

17/03/19 3 Trot 15 000€ 2 550m Reims Etoile Dubonheur 1'16"8 Attelé
10/03/19 8 Trot 14 000€ 2 750m La Capelle Flashback Syga 1'20"4 Attelé
10/03/19 3 Trot 15 000€ 2 700m La Capelle Daisy de la Folie 1'17"0 Attelé
10/03/19 2 Trot 14 000€ 2 750m La Capelle For Ever Mencourt 1'18"4 Attelé
10/03/19 9 Trot 18 000€ 2 750m La Capelle Cedar Keryvon 1'20"9 Attelé
10/03/19 7 Trot 13 000€ 2 700m La Capelle Eole Chatho 1'18"5 Attelé
10/03/19 2 Trot 13 000€ 2 700m La Capelle Excessive Well 1'18"2 Attelé